sensor_id;sensor_type;location;lat;lon;timestamp;temperature;humidity
21092;DHT22;10704;42.678;23.288;2023-03-05T00:01:32;6.80;99.90
21092;DHT22;10704;42.678;23.288;2023-03-05T00:03:59;6.70;99.90
21092;DHT22;10704;42.678;23.288;2023-03-05T00:06:27;6.60;99.90
21092;DHT22;10704;42.678;23.288;2023-03-05T00:08:54;6.60;99.90
21092;DHT22;10704;42.678;23.288;2023-03-05T00:11:23;6.60;99.90
21092;DHT22;10704;42.678;23.288;2023-03-05T00:13:54;6.60;99.90
21092;DHT22;10704;42.678;23.288;2023-03-05T00:16:21;6.60;99.90
21092;DHT22;10704;42.678;23.288;2023-03-05T00:18:47;6.50;99.90
21092;DHT22;10704;42.678;23.288;2023-03-05T00:23:50;6.50;99.90
21092;DHT22;10704;42.678;23.288;2023-03-05T00:26:21;6.60;99.90
21092;DHT22;10704;42.678;23.288;2023-03-05T00:28:47;6.70;99.90
21092;DHT22;10704;42.678;23.288;2023-03-05T00:31:27;6.70;99.90
21092;DHT22;10704;42.678;23.288;2023-03-05T00:34:01;6.60;99.90
21092;DHT22;10704;42.678;23.288;2023-03-05T00:36:28;6.70;99.90
21092;DHT22;10704;42.678;23.288;2023-03-05T00:38:54;6.70;99.90
21092;DHT22;10704;42.678;23.288;2023-03-05T00:41:21;6.70;99.90
21092;DHT22;10704;42.678;23.288;2023-03-05T00:43:47;6.70;99.90
21092;DHT22;10704;42.678;23.288;2023-03-05T00:46:13;6.70;99.90
21092;DHT22;10704;42.678;23.288;2023-03-05T00:48:39;6.70;99.90
21092;DHT22;10704;42.678;23.288;2023-03-05T00:51:05;6.70;99.90
21092;DHT22;10704;42.678;23.288;2023-03-05T00:53:31;6.60;99.90
21092;DHT22;10704;42.678;23.288;2023-03-05T00:55:57;6.60;99.90
21092;DHT22;10704;42.678;23.288;2023-03-05T00:58:24;6.60;99.90
21092;DHT22;10704;42.678;23.288;2023-03-05T01:00:50;6.50;99.90
21092;DHT22;10704;42.678;23.288;2023-03-05T01:03:17;6.40;99.90
21092;DHT22;10704;42.678;23.288;2023-03-05T01:05:43;6.40;99.90
21092;DHT22;10704;42.678;23.288;2023-03-05T01:08:10;6.40;99.90
21092;DHT22;10704;42.678;23.288;2023-03-05T01:10:36;6.30;99.90
21092;DHT22;10704;42.678;23.288;2023-03-05T01:13:02;6.30;99.90
21092;DHT22;10704;42.678;23.288;2023-03-05T01:15:28;6.30;99.90
21092;DHT22;10704;42.678;23.288;2023-03-05T01:17:53;6.30;99.90
21092;DHT22;10704;42.678;23.288;2023-03-05T01:20:21;6.30;99.90
21092;DHT22;10704;42.678;23.288;2023-03-05T01:22:47;6.30;99.90
21092;DHT22;10704;42.678;23.288;2023-03-05T01:25:14;6.30;99.90
21092;DHT22;10704;42.678;23.288;2023-03-05T01:27:41;6.30;99.90
21092;DHT22;10704;42.678;23.288;2023-03-05T01:30:09;6.30;99.90
21092;DHT22;10704;42.678;23.288;2023-03-05T01:32:36;6.30;99.90
21092;DHT22;10704;42.678;23.288;2023-03-05T01:35:03;6.30;99.90
21092;DHT22;10704;42.678;23.288;2023-03-05T01:37:29;6.30;99.90
21092;DHT22;10704;42.678;23.288;2023-03-05T01:39:55;6.30;99.90
21092;DHT22;10704;42.678;23.288;2023-03-05T01:42:21;6.40;99.90
21092;DHT22;10704;42.678;23.288;2023-03-05T01:45:06;6.40;99.90
21092;DHT22;10704;42.678;23.288;2023-03-05T01:47:32;6.40;99.90
21092;DHT22;10704;42.678;23.288;2023-03-05T01:49:58;6.40;99.90
21092;DHT22;10704;42.678;23.288;2023-03-05T01:52:26;6.40;99.90
21092;DHT22;10704;42.678;23.288;2023-03-05T01:55:03;6.40;99.90
21092;DHT22;10704;42.678;23.288;2023-03-05T01:57:41;6.40;99.90
21092;DHT22;10704;42.678;23.288;2023-03-05T02:00:12;6.30;99.90
21092;DHT22;10704;42.678;23.288;2023-03-05T02:02:44;6.30;99.90
21092;DHT22;10704;42.678;23.288;2023-03-05T02:05:21;6.30;99.90
21092;DHT22;10704;42.678;23.288;2023-03-05T02:07:54;6.30;99.90
21092;DHT22;10704;42.678;23.288;2023-03-05T02:12:48;6.30;99.90
21092;DHT22;10704;42.678;23.288;2023-03-05T02:15:16;6.30;99.90
21092;DHT22;10704;42.678;23.288;2023-03-05T02:17:42;6.30;99.90
21092;DHT22;10704;42.678;23.288;2023-03-05T02:20:17;6.40;99.90
21092;DHT22;10704;42.678;23.288;2023-03-05T02:22:43;6.30;99.90
21092;DHT22;10704;42.678;23.288;2023-03-05T02:25:13;6.30;99.90
21092;DHT22;10704;42.678;23.288;2023-03-05T02:27:40;6.30;99.90
21092;DHT22;10704;42.678;23.288;2023-03-05T02:30:08;6.40;99.90
21092;DHT22;10704;42.678;23.288;2023-03-05T02:32:34;6.30;99.90
21092;DHT22;10704;42.678;23.288;2023-03-05T02:35:00;6.30;99.90
21092;DHT22;10704;42.678;23.288;2023-03-05T02:37:26;6.20;99.90
21092;DHT22;10704;42.678;23.288;2023-03-05T02:39:52;6.20;99.90
21092;DHT22;10704;42.678;23.288;2023-03-05T02:42:18;6.10;99.90
21092;DHT22;10704;42.678;23.288;2023-03-05T02:44:44;6.10;99.90
21092;DHT22;10704;42.678;23.288;2023-03-05T02:47:10;6.10;99.90
21092;DHT22;10704;42.678;23.288;2023-03-05T02:49:36;6.00;99.90
21092;DHT22;10704;42.678;23.288;2023-03-05T02:52:02;6.00;99.90
21092;DHT22;10704;42.678;23.288;2023-03-05T02:54:28;5.90;99.90
21092;DHT22;10704;42.678;23.288;2023-03-05T02:56:54;5.90;99.90
21092;DHT22;10704;42.678;23.288;2023-03-05T02:59:21;5.90;99.90
21092;DHT22;10704;42.678;23.288;2023-03-05T03:01:47;5.90;99.90
21092;DHT22;10704;42.678;23.288;2023-03-05T03:04:12;5.90;99.90
21092;DHT22;10704;42.678;23.288;2023-03-05T03:06:38;5.90;99.90
21092;DHT22;10704;42.678;23.288;2023-03-05T03:09:04;5.80;99.90
21092;DHT22;10704;42.678;23.288;2023-03-05T03:11:30;5.80;99.90
21092;DHT22;10704;42.678;23.288;2023-03-05T03:13:56;5.80;99.90
21092;DHT22;10704;42.678;23.288;2023-03-05T03:16:21;5.80;99.90
21092;DHT22;10704;42.678;23.288;2023-03-05T03:18:47;5.80;99.90
21092;DHT22;10704;42.678;23.288;2023-03-05T03:21:22;5.70;99.90
21092;DHT22;10704;42.678;23.288;2023-03-05T03:23:48;5.70;99.90
21092;DHT22;10704;42.678;23.288;2023-03-05T03:26:14;5.60;99.90
21092;DHT22;10704;42.678;23.288;2023-03-05T03:28:40;5.60;99.90
21092;DHT22;10704;42.678;23.288;2023-03-05T03:31:06;5.60;99.90
21092;DHT22;10704;42.678;23.288;2023-03-05T03:33:33;5.60;99.90
21092;DHT22;10704;42.678;23.288;2023-03-05T03:35:59;5.60;99.90
21092;DHT22;10704;42.678;23.288;2023-03-05T03:38:25;5.60;99.90
21092;DHT22;10704;42.678;23.288;2023-03-05T03:40:51;5.50;99.90
21092;DHT22;10704;42.678;23.288;2023-03-05T03:43:17;5.50;99.90
21092;DHT22;10704;42.678;23.288;2023-03-05T03:45:43;5.50;99.90
21092;DHT22;10704;42.678;23.288;2023-03-05T03:48:09;5.40;99.90
21092;DHT22;10704;42.678;23.288;2023-03-05T03:50:40;5.40;99.90
21092;DHT22;10704;42.678;23.288;2023-03-05T03:53:06;5.40;99.90
21092;DHT22;10704;42.678;23.288;2023-03-05T03:55:33;5.40;99.90
21092;DHT22;10704;42.678;23.288;2023-03-05T03:57:59;5.30;99.90
21092;DHT22;10704;42.678;23.288;2023-03-05T04:00:25;5.40;99.90
21092;DHT22;10704;42.678;23.288;2023-03-05T04:02:50;5.30;99.90
21092;DHT22;10704;42.678;23.288;2023-03-05T04:05:16;5.30;99.90
21092;DHT22;10704;42.678;23.288;2023-03-05T04:07:42;5.30;99.90
21092;DHT22;10704;42.678;23.288;2023-03-05T04:10:11;5.30;99.90
21092;DHT22;10704;42.678;23.288;2023-03-05T04:12:36;5.30;99.90
21092;DHT22;10704;42.678;23.288;2023-03-05T04:15:03;5.30;99.90
21092;DHT22;10704;42.678;23.288;2023-03-05T04:17:31;5.30;99.90
21092;DHT22;10704;42.678;23.288;2023-03-05T04:19:57;5.40;99.90
21092;DHT22;10704;42.678;23.288;2023-03-05T04:22:42;5.30;99.90
21092;DHT22;10704;42.678;23.288;2023-03-05T04:25:08;5.30;99.90
21092;DHT22;10704;42.678;23.288;2023-03-05T04:27:34;5.20;99.90
21092;DHT22;10704;42.678;23.288;2023-03-05T04:30:03;5.20;99.90
21092;DHT22;10704;42.678;23.288;2023-03-05T04:32:29;5.20;99.90
21092;DHT22;10704;42.678;23.288;2023-03-05T04:34:55;5.10;99.90
21092;DHT22;10704;42.678;23.288;2023-03-05T04:37:22;5.20;99.90
21092;DHT22;10704;42.678;23.288;2023-03-05T04:39:49;5.20;99.90
21092;DHT22;10704;42.678;23.288;2023-03-05T04:42:14;5.20;99.90
21092;DHT22;10704;42.678;23.288;2023-03-05T04:44:40;5.10;99.90
21092;DHT22;10704;42.678;23.288;2023-03-05T04:47:06;5.20;99.90
21092;DHT22;10704;42.678;23.288;2023-03-05T04:49:32;5.10;99.90
21092;DHT22;10704;42.678;23.288;2023-03-05T04:51:58;5.10;99.90
21092;DHT22;10704;42.678;23.288;2023-03-05T04:54:24;5.10;99.90
21092;DHT22;10704;42.678;23.288;2023-03-05T04:56:50;5.10;99.90
21092;DHT22;10704;42.678;23.288;2023-03-05T04:59:15;5.10;99.90
21092;DHT22;10704;42.678;23.288;2023-03-05T05:01:41;5.10;99.90
21092;DHT22;10704;42.678;23.288;2023-03-05T05:04:07;5.10;99.90
21092;DHT22;10704;42.678;23.288;2023-03-05T05:06:33;5.10;99.90
21092;DHT22;10704;42.678;23.288;2023-03-05T05:08:59;5.10;99.90
21092;DHT22;10704;42.678;23.288;2023-03-05T05:11:25;5.10;99.90
21092;DHT22;10704;42.678;23.288;2023-03-05T05:13:51;5.10;99.90
21092;DHT22;10704;42.678;23.288;2023-03-05T05:16:17;5.00;99.90
21092;DHT22;10704;42.678;23.288;2023-03-05T05:18:43;5.00;99.90
21092;DHT22;10704;42.678;23.288;2023-03-05T05:21:11;5.00;99.90
21092;DHT22;10704;42.678;23.288;2023-03-05T05:23:37;5.10;99.90
21092;DHT22;10704;42.678;23.288;2023-03-05T05:26:06;5.10;99.90
21092;DHT22;10704;42.678;23.288;2023-03-05T05:28:33;5.10;99.90
21092;DHT22;10704;42.678;23.288;2023-03-05T05:30:59;5.00;99.90
21092;DHT22;10704;42.678;23.288;2023-03-05T05:33:26;5.10;99.90
21092;DHT22;10704;42.678;23.288;2023-03-05T05:35:52;5.10;99.90
21092;DHT22;10704;42.678;23.288;2023-03-05T05:38:18;5.20;99.90
21092;DHT22;10704;42.678;23.288;2023-03-05T05:40:44;5.20;99.90
21092;DHT22;10704;42.678;23.288;2023-03-05T05:43:09;5.30;99.90
21092;DHT22;10704;42.678;23.288;2023-03-05T05:45:38;5.30;99.90
21092;DHT22;10704;42.678;23.288;2023-03-05T05:48:05;5.40;99.90
21092;DHT22;10704;42.678;23.288;2023-03-05T05:50:31;5.40;99.90
21092;DHT22;10704;42.678;23.288;2023-03-05T05:52:57;5.30;99.90
21092;DHT22;10704;42.678;23.288;2023-03-05T05:55:22;5.50;99.90
21092;DHT22;10704;42.678;23.288;2023-03-05T05:57:48;5.50;99.90
21092;DHT22;10704;42.678;23.288;2023-03-05T06:00:15;5.60;99.90
21092;DHT22;10704;42.678;23.288;2023-03-05T06:02:41;5.60;99.90
21092;DHT22;10704;42.678;23.288;2023-03-05T06:05:11;5.50;99.90
21092;DHT22;10704;42.678;23.288;2023-03-05T06:07:37;5.50;99.90
21092;DHT22;10704;42.678;23.288;2023-03-05T06:10:03;5.60;99.90
21092;DHT22;10704;42.678;23.288;2023-03-05T06:12:29;5.60;99.90
21092;DHT22;10704;42.678;23.288;2023-03-05T06:14:55;5.60;99.90
21092;DHT22;10704;42.678;23.288;2023-03-05T06:17:21;5.50;99.90
21092;DHT22;10704;42.678;23.288;2023-03-05T06:19:47;5.50;99.90
21092;DHT22;10704;42.678;23.288;2023-03-05T06:22:13;5.60;99.90
21092;DHT22;10704;42.678;23.288;2023-03-05T06:24:39;5.60;99.90
21092;DHT22;10704;42.678;23.288;2023-03-05T06:27:05;5.60;99.90
21092;DHT22;10704;42.678;23.288;2023-03-05T06:29:31;5.60;99.90
21092;DHT22;10704;42.678;23.288;2023-03-05T06:31:57;5.60;99.90
21092;DHT22;10704;42.678;23.288;2023-03-05T06:34:23;5.50;99.90
21092;DHT22;10704;42.678;23.288;2023-03-05T06:36:49;5.40;99.90
21092;DHT22;10704;42.678;23.288;2023-03-05T06:39:15;5.50;99.90
21092;DHT22;10704;42.678;23.288;2023-03-05T06:41:40;5.50;99.90
21092;DHT22;10704;42.678;23.288;2023-03-05T06:44:06;5.70;99.90
21092;DHT22;10704;42.678;23.288;2023-03-05T06:46:34;5.70;99.90
21092;DHT22;10704;42.678;23.288;2023-03-05T06:49:02;5.80;99.90
21092;DHT22;10704;42.678;23.288;2023-03-05T06:51:34;6.10;99.90
21092;DHT22;10704;42.678;23.288;2023-03-05T06:54:03;6.10;99.90
21092;DHT22;10704;42.678;23.288;2023-03-05T06:56:29;6.10;99.90
21092;DHT22;10704;42.678;23.288;2023-03-05T06:58:55;6.30;99.90
21092;DHT22;10704;42.678;23.288;2023-03-05T07:01:22;6.20;99.90
21092;DHT22;10704;42.678;23.288;2023-03-05T07:03:53;6.30;99.90
21092;DHT22;10704;42.678;23.288;2023-03-05T07:06:20;6.20;99.90
21092;DHT22;10704;42.678;23.288;2023-03-05T07:08:47;6.30;99.90
21092;DHT22;10704;42.678;23.288;2023-03-05T07:11:16;6.50;99.90
21092;DHT22;10704;42.678;23.288;2023-03-05T07:13:42;6.60;99.90
21092;DHT22;10704;42.678;23.288;2023-03-05T07:16:12;6.60;99.90
21092;DHT22;10704;42.678;23.288;2023-03-05T07:18:38;6.50;99.90
21092;DHT22;10704;42.678;23.288;2023-03-05T07:21:05;6.60;99.90
21092;DHT22;10704;42.678;23.288;2023-03-05T07:23:32;6.70;99.90
21092;DHT22;10704;42.678;23.288;2023-03-05T07:26:05;6.90;99.90
21092;DHT22;10704;42.678;23.288;2023-03-05T07:28:32;6.90;99.90
21092;DHT22;10704;42.678;23.288;2023-03-05T07:31:00;7.20;99.90
21092;DHT22;10704;42.678;23.288;2023-03-05T07:33:27;7.20;99.90
21092;DHT22;10704;42.678;23.288;2023-03-05T07:35:53;7.30;99.90
21092;DHT22;10704;42.678;23.288;2023-03-05T07:38:20;7.30;99.90
21092;DHT22;10704;42.678;23.288;2023-03-05T07:40:45;7.20;99.90
21092;DHT22;10704;42.678;23.288;2023-03-05T07:43:12;7.20;99.90
21092;DHT22;10704;42.678;23.288;2023-03-05T07:45:39;7.40;99.90
21092;DHT22;10704;42.678;23.288;2023-03-05T07:48:06;7.80;99.90
21092;DHT22;10704;42.678;23.288;2023-03-05T07:50:32;7.90;99.90
21092;DHT22;10704;42.678;23.288;2023-03-05T07:52:58;7.80;99.90
21092;DHT22;10704;42.678;23.288;2023-03-05T07:55:24;8.10;99.90
21092;DHT22;10704;42.678;23.288;2023-03-05T07:57:50;8.10;99.90
21092;DHT22;10704;42.678;23.288;2023-03-05T08:00:17;8.30;99.90
21092;DHT22;10704;42.678;23.288;2023-03-05T08:02:43;8.50;99.90
21092;DHT22;10704;42.678;23.288;2023-03-05T08:05:10;8.40;99.90
21092;DHT22;10704;42.678;23.288;2023-03-05T08:07:36;8.50;99.90
21092;DHT22;10704;42.678;23.288;2023-03-05T08:10:03;8.30;99.90
21092;DHT22;10704;42.678;23.288;2023-03-05T08:12:29;8.50;99.90
21092;DHT22;10704;42.678;23.288;2023-03-05T08:14:54;8.70;99.90
21092;DHT22;10704;42.678;23.288;2023-03-05T08:17:20;8.50;99.90
21092;DHT22;10704;42.678;23.288;2023-03-05T08:19:46;8.40;99.90
21092;DHT22;10704;42.678;23.288;2023-03-05T08:22:12;8.00;99.90
21092;DHT22;10704;42.678;23.288;2023-03-05T08:24:41;8.00;99.90
21092;DHT22;10704;42.678;23.288;2023-03-05T08:27:07;7.90;99.90
21092;DHT22;10704;42.678;23.288;2023-03-05T08:29:33;7.90;99.90
21092;DHT22;10704;42.678;23.288;2023-03-05T08:31:58;7.90;99.90
21092;DHT22;10704;42.678;23.288;2023-03-05T08:34:25;7.90;99.90
21092;DHT22;10704;42.678;23.288;2023-03-05T08:36:50;7.40;99.90
21092;DHT22;10704;42.678;23.288;2023-03-05T08:39:17;7.70;99.90
21092;DHT22;10704;42.678;23.288;2023-03-05T08:41:43;7.50;99.90
21092;DHT22;10704;42.678;23.288;2023-03-05T08:44:10;7.70;99.90
21092;DHT22;10704;42.678;23.288;2023-03-05T08:46:38;7.70;99.90
21092;DHT22;10704;42.678;23.288;2023-03-05T08:49:04;7.80;99.90
21092;DHT22;10704;42.678;23.288;2023-03-05T08:51:32;8.10;99.90
21092;DHT22;10704;42.678;23.288;2023-03-05T08:53:59;8.10;99.90
21092;DHT22;10704;42.678;23.288;2023-03-05T08:56:26;8.10;99.90
21092;DHT22;10704;42.678;23.288;2023-03-05T08:58:56;8.30;99.90
21092;DHT22;10704;42.678;23.288;2023-03-05T09:01:22;8.30;99.90
21092;DHT22;10704;42.678;23.288;2023-03-05T09:03:48;8.70;99.90
21092;DHT22;10704;42.678;23.288;2023-03-05T09:06:15;8.80;99.90
21092;DHT22;10704;42.678;23.288;2023-03-05T09:08:41;9.30;99.90
21092;DHT22;10704;42.678;23.288;2023-03-05T09:11:10;9.60;98.80
21092;DHT22;10704;42.678;23.288;2023-03-05T09:13:36;10.00;98.10
21092;DHT22;10704;42.678;23.288;2023-03-05T09:16:08;9.70;95.80
21092;DHT22;10704;42.678;23.288;2023-03-05T09:18:35;9.30;96.80
21092;DHT22;10704;42.678;23.288;2023-03-05T09:21:13;9.30;96.70
21092;DHT22;10704;42.678;23.288;2023-03-05T09:23:40;9.70;96.60
21092;DHT22;10704;42.678;23.288;2023-03-05T09:26:11;9.70;94.60
21092;DHT22;10704;42.678;23.288;2023-03-05T09:28:38;9.50;93.70
21092;DHT22;10704;42.678;23.288;2023-03-05T09:31:06;9.70;94.00
21092;DHT22;10704;42.678;23.288;2023-03-05T09:33:33;9.80;92.50
21092;DHT22;10704;42.678;23.288;2023-03-05T09:36:00;9.30;92.10
21092;DHT22;10704;42.678;23.288;2023-03-05T09:39:45;9.20;91.70
21092;DHT22;10704;42.678;23.288;2023-03-05T09:50:34;8.90;92.00
21092;DHT22;10704;42.678;23.288;2023-03-05T09:55:57;9.40;90.40
21092;DHT22;10704;42.678;23.288;2023-03-05T09:58:39;9.70;86.70
21092;DHT22;10704;42.678;23.288;2023-03-05T10:01:18;9.40;85.50
21092;DHT22;10704;42.678;23.288;2023-03-05T10:08:57;13.50;74.10
21092;DHT22;10704;42.678;23.288;2023-03-05T10:11:32;14.20;69.90
21092;DHT22;10704;42.678;23.288;2023-03-05T10:14:00;12.70;68.90
21092;DHT22;10704;42.678;23.288;2023-03-05T10:16:52;11.30;73.50
21092;DHT22;10704;42.678;23.288;2023-03-05T10:19:36;10.80;77.30
21092;DHT22;10704;42.678;23.288;2023-03-05T10:22:18;10.10;79.20
21092;DHT22;10704;42.678;23.288;2023-03-05T10:27:57;10.70;80.60
21092;DHT22;10704;42.678;23.288;2023-03-05T10:30:30;11.10;78.10
21092;DHT22;10704;42.678;23.288;2023-03-05T10:39:30;10.00;76.50
21092;DHT22;10704;42.678;23.288;2023-03-05T10:44:58;10.60;75.50
21092;DHT22;10704;42.678;23.288;2023-03-05T10:47:41;10.80;75.40
21092;DHT22;10704;42.678;23.288;2023-03-05T10:53:12;11.00;74.10
21092;DHT22;10704;42.678;23.288;2023-03-05T10:55:40;11.20;75.40
21092;DHT22;10704;42.678;23.288;2023-03-05T10:58:14;11.30;73.30
21092;DHT22;10704;42.678;23.288;2023-03-05T11:01:00;10.30;73.30
21092;DHT22;10704;42.678;23.288;2023-03-05T11:03:55;9.80;76.40
21092;DHT22;10704;42.678;23.288;2023-03-05T11:06:38;9.80;77.10
21092;DHT22;10704;42.678;23.288;2023-03-05T11:09:27;9.80;78.00
21092;DHT22;10704;42.678;23.288;2023-03-05T11:14:30;9.80;79.80
21092;DHT22;10704;42.678;23.288;2023-03-05T11:17:03;9.90;80.30
21092;DHT22;10704;42.678;23.288;2023-03-05T11:25:55;11.20;79.00
21092;DHT22;10704;42.678;23.288;2023-03-05T11:28:37;11.10;76.60
21092;DHT22;10704;42.678;23.288;2023-03-05T11:39:24;10.30;77.40
21092;DHT22;10704;42.678;23.288;2023-03-05T11:42:04;10.90;80.10
21092;DHT22;10704;42.678;23.288;2023-03-05T11:44:47;10.40;78.20
21092;DHT22;10704;42.678;23.288;2023-03-05T11:47:41;10.00;80.80
21092;DHT22;10704;42.678;23.288;2023-03-05T11:50:19;10.70;80.30
21092;DHT22;10704;42.678;23.288;2023-03-05T11:52:51;10.60;78.70
21092;DHT22;10704;42.678;23.288;2023-03-05T12:00:28;11.60;78.80
21092;DHT22;10704;42.678;23.288;2023-03-05T12:02:57;11.40;75.30
21092;DHT22;10704;42.678;23.288;2023-03-05T12:05:27;10.80;73.90
21092;DHT22;10704;42.678;23.288;2023-03-05T12:07:57;10.60;74.40
21092;DHT22;10704;42.678;23.288;2023-03-05T12:10:25;10.50;76.20
21092;DHT22;10704;42.678;23.288;2023-03-05T12:13:11;10.60;75.70
21092;DHT22;10704;42.678;23.288;2023-03-05T12:23:58;11.30;78.00
21092;DHT22;10704;42.678;23.288;2023-03-05T12:27:06;11.60;77.40
21092;DHT22;10704;42.678;23.288;2023-03-05T12:35:01;10.70;76.00
21092;DHT22;10704;42.678;23.288;2023-03-05T12:47:46;11.30;72.90
21092;DHT22;10704;42.678;23.288;2023-03-05T12:55:48;10.80;74.70
21092;DHT22;10704;42.678;23.288;2023-03-05T13:01:11;11.10;75.10
21092;DHT22;10704;42.678;23.288;2023-03-05T13:03:52;11.20;73.90
21092;DHT22;10704;42.678;23.288;2023-03-05T13:06:26;11.10;74.00
21092;DHT22;10704;42.678;23.288;2023-03-05T13:08:59;11.20;74.80
21092;DHT22;10704;42.678;23.288;2023-03-05T13:11:27;11.20;73.90
21092;DHT22;10704;42.678;23.288;2023-03-05T13:13:54;11.20;74.60
21092;DHT22;10704;42.678;23.288;2023-03-05T13:16:26;10.90;73.90
21092;DHT22;10704;42.678;23.288;2023-03-05T13:18:56;10.90;74.90
21092;DHT22;10704;42.678;23.288;2023-03-05T13:21:28;10.80;74.10
21092;DHT22;10704;42.678;23.288;2023-03-05T13:24:00;10.60;74.70
21092;DHT22;10704;42.678;23.288;2023-03-05T13:26:36;10.60;75.50
21092;DHT22;10704;42.678;23.288;2023-03-05T13:31:43;10.60;74.90
21092;DHT22;10704;42.678;23.288;2023-03-05T13:34:25;10.30;75.10
21092;DHT22;10704;42.678;23.288;2023-03-05T13:39:39;10.10;76.00
21092;DHT22;10704;42.678;23.288;2023-03-05T13:42:15;9.90;76.00
21092;DHT22;10704;42.678;23.288;2023-03-05T13:44:42;9.70;77.40
21092;DHT22;10704;42.678;23.288;2023-03-05T13:47:16;9.70;76.50
21092;DHT22;10704;42.678;23.288;2023-03-05T13:49:44;9.80;77.00
21092;DHT22;10704;42.678;23.288;2023-03-05T13:52:28;9.90;76.60
21092;DHT22;10704;42.678;23.288;2023-03-05T13:54:56;10.10;76.60
21092;DHT22;10704;42.678;23.288;2023-03-05T13:57:38;10.00;75.90
21092;DHT22;10704;42.678;23.288;2023-03-05T14:02:51;9.80;77.80
21092;DHT22;10704;42.678;23.288;2023-03-05T14:05:18;9.60;77.60
21092;DHT22;10704;42.678;23.288;2023-03-05T14:07:47;9.70;77.70
21092;DHT22;10704;42.678;23.288;2023-03-05T14:10:40;9.80;77.70
21092;DHT22;10704;42.678;23.288;2023-03-05T14:13:17;9.70;77.70
21092;DHT22;10704;42.678;23.288;2023-03-05T14:16:05;9.80;77.70
21092;DHT22;10704;42.678;23.288;2023-03-05T14:18:31;9.60;77.70
21092;DHT22;10704;42.678;23.288;2023-03-05T14:26:20;9.50;77.90
21092;DHT22;10704;42.678;23.288;2023-03-05T14:31:37;9.20;77.70
21092;DHT22;10704;42.678;23.288;2023-03-05T14:34:18;9.00;78.10
21092;DHT22;10704;42.678;23.288;2023-03-05T14:36:47;8.90;78.30
21092;DHT22;10704;42.678;23.288;2023-03-05T14:39:29;8.80;78.80
21092;DHT22;10704;42.678;23.288;2023-03-05T14:45:00;8.80;79.00
21092;DHT22;10704;42.678;23.288;2023-03-05T14:47:28;8.90;78.50
21092;DHT22;10704;42.678;23.288;2023-03-05T14:49:54;8.90;78.10
21092;DHT22;10704;42.678;23.288;2023-03-05T14:52:22;8.80;77.40
21092;DHT22;10704;42.678;23.288;2023-03-05T14:54:48;8.80;77.80
21092;DHT22;10704;42.678;23.288;2023-03-05T14:57:23;8.80;78.30
21092;DHT22;10704;42.678;23.288;2023-03-05T14:59:50;8.80;77.80
21092;DHT22;10704;42.678;23.288;2023-03-05T15:02:21;8.80;78.40
21092;DHT22;10704;42.678;23.288;2023-03-05T15:04:47;8.80;78.10
21092;DHT22;10704;42.678;23.288;2023-03-05T15:07:21;8.70;78.60
21092;DHT22;10704;42.678;23.288;2023-03-05T15:09:47;8.70;78.00
21092;DHT22;10704;42.678;23.288;2023-03-05T15:12:14;8.70;77.70
21092;DHT22;10704;42.678;23.288;2023-03-05T15:14:41;8.70;78.10
21092;DHT22;10704;42.678;23.288;2023-03-05T15:17:18;8.70;78.00
21092;DHT22;10704;42.678;23.288;2023-03-05T15:19:45;8.60;77.40
21092;DHT22;10704;42.678;23.288;2023-03-05T15:22:12;8.60;77.90
21092;DHT22;10704;42.678;23.288;2023-03-05T15:24:39;8.50;78.60
21092;DHT22;10704;42.678;23.288;2023-03-05T15:27:05;8.50;79.10
21092;DHT22;10704;42.678;23.288;2023-03-05T15:29:31;8.40;79.50
21092;DHT22;10704;42.678;23.288;2023-03-05T15:31:57;8.40;79.60
21092;DHT22;10704;42.678;23.288;2023-03-05T15:34:23;8.30;79.80
21092;DHT22;10704;42.678;23.288;2023-03-05T15:36:49;8.40;80.30
21092;DHT22;10704;42.678;23.288;2023-03-05T15:39:15;8.30;80.20
21092;DHT22;10704;42.678;23.288;2023-03-05T15:41:41;8.20;80.70
21092;DHT22;10704;42.678;23.288;2023-03-05T15:44:06;8.10;80.70
21092;DHT22;10704;42.678;23.288;2023-03-05T15:46:33;8.00;79.90
21092;DHT22;10704;42.678;23.288;2023-03-05T15:48:59;8.00;80.50
21092;DHT22;10704;42.678;23.288;2023-03-05T15:51:25;8.00;79.40
21092;DHT22;10704;42.678;23.288;2023-03-05T15:53:51;8.00;79.60
21092;DHT22;10704;42.678;23.288;2023-03-05T15:56:18;8.00;79.20
21092;DHT22;10704;42.678;23.288;2023-03-05T15:58:43;8.00;79.70
21092;DHT22;10704;42.678;23.288;2023-03-05T16:01:10;8.00;80.20
21092;DHT22;10704;42.678;23.288;2023-03-05T16:03:36;8.00;80.60
21092;DHT22;10704;42.678;23.288;2023-03-05T16:06:03;7.90;81.40
21092;DHT22;10704;42.678;23.288;2023-03-05T16:08:31;7.80;82.50
21092;DHT22;10704;42.678;23.288;2023-03-05T16:10:58;7.70;83.10
21092;DHT22;10704;42.678;23.288;2023-03-05T16:13:25;7.60;84.10
21092;DHT22;10704;42.678;23.288;2023-03-05T16:15:53;7.60;84.40
21092;DHT22;10704;42.678;23.288;2023-03-05T16:18:20;7.50;84.80
21092;DHT22;10704;42.678;23.288;2023-03-05T16:20:46;7.50;85.30
21092;DHT22;10704;42.678;23.288;2023-03-05T16:23:15;7.50;85.00
21092;DHT22;10704;42.678;23.288;2023-03-05T16:25:41;7.40;84.90
21092;DHT22;10704;42.678;23.288;2023-03-05T16:28:07;7.40;85.50
21092;DHT22;10704;42.678;23.288;2023-03-05T16:30:33;7.40;86.70
21092;DHT22;10704;42.678;23.288;2023-03-05T16:32:59;7.40;86.40
21092;DHT22;10704;42.678;23.288;2023-03-05T16:35:25;7.20;87.60
21092;DHT22;10704;42.678;23.288;2023-03-05T16:37:51;7.20;88.80
21092;DHT22;10704;42.678;23.288;2023-03-05T16:40:17;7.10;89.90
21092;DHT22;10704;42.678;23.288;2023-03-05T16:42:43;7.00;90.50
21092;DHT22;10704;42.678;23.288;2023-03-05T16:45:10;7.10;91.20
21092;DHT22;10704;42.678;23.288;2023-03-05T16:47:36;7.00;91.60
21092;DHT22;10704;42.678;23.288;2023-03-05T16:50:02;6.90;92.40
21092;DHT22;10704;42.678;23.288;2023-03-05T16:52:28;6.90;93.10
21092;DHT22;10704;42.678;23.288;2023-03-05T16:54:54;6.80;93.40
21092;DHT22;10704;42.678;23.288;2023-03-05T16:57:21;6.70;94.20
21092;DHT22;10704;42.678;23.288;2023-03-05T16:59:50;6.60;95.30
21092;DHT22;10704;42.678;23.288;2023-03-05T17:02:17;6.60;95.90
21092;DHT22;10704;42.678;23.288;2023-03-05T17:04:43;6.40;96.90
21092;DHT22;10704;42.678;23.288;2023-03-05T17:07:09;6.40;97.60
21092;DHT22;10704;42.678;23.288;2023-03-05T17:09:36;6.30;98.40
21092;DHT22;10704;42.678;23.288;2023-03-05T17:12:02;6.40;99.20
21092;DHT22;10704;42.678;23.288;2023-03-05T17:14:28;6.40;99.30
21092;DHT22;10704;42.678;23.288;2023-03-05T17:16:54;6.30;99.60
21092;DHT22;10704;42.678;23.288;2023-03-05T17:19:20;6.20;99.90
21092;DHT22;10704;42.678;23.288;2023-03-05T17:21:46;6.20;99.90
21092;DHT22;10704;42.678;23.288;2023-03-05T17:24:15;6.20;99.90
21092;DHT22;10704;42.678;23.288;2023-03-05T17:26:42;6.10;99.90
21092;DHT22;10704;42.678;23.288;2023-03-05T17:29:08;6.10;99.90
21092;DHT22;10704;42.678;23.288;2023-03-05T17:31:33;6.10;99.90